Aviation Digital Data Service (ADDS)

Output produced by METARs form (1339 UTC 26 May 2018)
found at http://www.aviationweather.gov/adds/metars/
 
TAF COR SCFA 261145Z 2612/2712 10004KT 9999 OVC014 TX17/2617Z TN13/ 2706Z 
     BECMG 2615/2617 22011KT FEW015 
     BECMG 2621/2623 BKN015 
     BECMG 2700/2702 17004KT 
     BECMG 2708/2710 12004KT
       
TAF SCAR 261011Z 2612/2712 17004KT 9999 OVC020 TX19/2617Z TN18/2706Z 
     BECMG 2616/2618 22010KT SCT020 
     BECMG 2621/2623 OVC020 
     BECMG 2624/2702 17004KT 
     BECMG 2708/2710 25004KT
       
TAF SCBA 261059Z 2612/2712 31020G35KT 8000 SHRA BKN025 BKN040 TN03/2612Z TX10/2618Z 
     BECMG 2703/2705 9999 NSW SCT040
       
TAF SCCF 261013Z 2612/2712 12020KT CAVOK TX21/2618Z TN01/2709Z 
     BECMG 2614/2615 10008KT 
     BECMG 2616/2618 27018KT 
     BECMG 2624/2701 11004KT 
     BECMG 2702/2704 11013KT 
     BECMG 2709/2711 11023KT
       
TAF SCIE 261002Z 2612/2712 01012KT 9999 SCT005 BKN010 OVC025 TX14/2619Z TN10/2711Z 
     TEMPO 2612/2614 27008KT 3000 RA SCT004 BKN020 OVC035 
     BECMG 2615/2617 23004KT 
     BECMG 2618/2620 VRB03KT 9999 SCT010 SCT020 BKN040 
     BECMG 2701/2703 16004KT SCT015 
     TEMPO 2706/2712 21006KT 0700 FG BKN002
       
TAF SCAT 261014Z 2612/2712 23004KT 9999 OVC011 TX17/2618Z TN12/2706Z //END PART 01// 
       
TAF SCCY 261059Z 2612/2624 23017KT 8000 -SHRA 9999 BKN020 BKN030 TN05/2612Z TX09/2618Z
       
TAF SCDA 261012Z 2612/2712 21004KT 9999 OVC020 TX18/2617Z TN15/2706Z 
     BECMG 2616/2618 22015KT SCT030 
     BECMG 2620/2622 18007KT OVC020 
     BECMG 2704/2706 10004KT 
     BECMG 2708/2710 20004KT
       
TAF SCSE 261000Z 2612/2712 29004KT 9999 BKN010 BKN020 TX14/2619Z TN09/2711Z 
     TEMPO 2612/2614 11004KT 2000 BR SCT005 BKN008 
     BECMG 2615/2617 28010KT SCT006 SCT014 
     BECMG 2617/2619 FEW020 
     BECMG 2701/2703 29004KT SCT010 BKN020 
     TEMPO 2706/2712 11004KT 4000 BR SCT005 BKN008
       
TAF SCJO 261057Z 2612/2624 36007KT 9999 SCT015 BKN035 TX12/2618Z TN07/2624Z 
     TEMPO 2617/2619 8000 SHRA BKN015 OVC030
       
TAF SCTE 261057Z 2612/2712 03007KT 9999 BKN040 TN07/2612Z TX12/2619Z 
     TEMPO 2617/2620 8000 -SHRA BKN020 OVC030
       
TAF SCCI 261033Z 2612/2712 30020G30KT 9000 SCT040 TN00/27010Z TX08/2615Z 
     BECMG 2613/2615 29025G35KT 
     BECMG 2616/2618 27030G40KT 
     TEMPO 2616/2620 25035G50KT 
     BECMG 2621/2623 25022G35KT 
     BECMG 2700/2702 26017KT 
     BECMG 2710/2712 27012KT
       
TAF COR SCEL 261001Z 2612/2712 17004KT 2000 BR BKN004 BKN008 BKN016 TX21/2519Z TN05/2711Z 
     TEMPO 2612/2614 VRB02KT 0700 BCFG OVC002 
     BECMG 2615/2617 18004KT 4000 BR SCT010 BKN020 BKN035 
     BECMG 2618/2620 20010KT 8000 BKN200 
     BECMG 2701/2703 17004KT CAVOK 
     TEMPO 2706/2712 VRB02KT 5000 BR NSC